sensor_id;sensor_type;location;lat;lon;timestamp;P1;durP1;ratioP1;P2;durP2;ratioP2
61569;SDS011;47462;59.172;17.196;2023-09-19T00:03:24;11.52;;;7.22;;
61569;SDS011;47462;59.172;17.196;2023-09-19T00:05:50;10.85;;;6.55;;
61569;SDS011;47462;59.172;17.196;2023-09-19T00:10:42;14.13;;;7.78;;
61569;SDS011;47462;59.172;17.196;2023-09-19T00:13:08;15.15;;;7.95;;
61569;SDS011;47462;59.172;17.196;2023-09-19T00:15:38;15.10;;;7.97;;
61569;SDS011;47462;59.172;17.196;2023-09-19T00:18:05;16.58;;;8.40;;
61569;SDS011;47462;59.172;17.196;2023-09-19T00:20:31;14.57;;;8.27;;
61569;SDS011;47462;59.172;17.196;2023-09-19T00:25:24;20.20;;;8.70;;
61569;SDS011;47462;59.172;17.196;2023-09-19T00:27:51;15.02;;;9.20;;
61569;SDS011;47462;59.172;17.196;2023-09-19T00:32:46;15.13;;;9.27;;
61569;SDS011;47462;59.172;17.196;2023-09-19T00:35:13;17.27;;;9.15;;
61569;SDS011;47462;59.172;17.196;2023-09-19T00:37:42;12.30;;;9.65;;
61569;SDS011;47462;59.172;17.196;2023-09-19T00:42:39;15.07;;;10.18;;
61569;SDS011;47462;59.172;17.196;2023-09-19T00:45:06;16.15;;;10.45;;
61569;SDS011;47462;59.172;17.196;2023-09-19T00:47:34;17.17;;;10.02;;
61569;SDS011;47462;59.172;17.196;2023-09-19T00:50:00;16.33;;;10.40;;
61569;SDS011;47462;59.172;17.196;2023-09-19T00:52:26;22.55;;;11.35;;
61569;SDS011;47462;59.172;17.196;2023-09-19T00:57:17;15.40;;;11.17;;
61569;SDS011;47462;59.172;17.196;2023-09-19T00:59:44;21.23;;;12.07;;
61569;SDS011;47462;59.172;17.196;2023-09-19T01:02:10;22.55;;;12.23;;
61569;SDS011;47462;59.172;17.196;2023-09-19T01:04:39;23.30;;;12.45;;
61569;SDS011;47462;59.172;17.196;2023-09-19T01:07:05;19.98;;;12.90;;
61569;SDS011;47462;59.172;17.196;2023-09-19T01:11:58;22.60;;;12.90;;
61569;SDS011;47462;59.172;17.196;2023-09-19T01:14:38;21.77;;;12.70;;
61569;SDS011;47462;59.172;17.196;2023-09-19T01:17:30;16.67;;;12.70;;
61569;SDS011;47462;59.172;17.196;2023-09-19T01:20:21;21.13;;;14.65;;
61569;SDS011;47462;59.172;17.196;2023-09-19T01:23:10;22.60;;;14.63;;
61569;SDS011;47462;59.172;17.196;2023-09-19T01:28:31;42.25;;;29.27;;
61569;SDS011;47462;59.172;17.196;2023-09-19T01:31:01;36.78;;;25.98;;
61569;SDS011;47462;59.172;17.196;2023-09-19T01:33:28;32.58;;;22.60;;
61569;SDS011;47462;59.172;17.196;2023-09-19T01:35:59;37.92;;;27.00;;
61569;SDS011;47462;59.172;17.196;2023-09-19T01:38:36;31.10;;;21.90;;
61569;SDS011;47462;59.172;17.196;2023-09-19T01:43:32;24.15;;;16.40;;
61569;SDS011;47462;59.172;17.196;2023-09-19T01:46:04;25.38;;;17.25;;
61569;SDS011;47462;59.172;17.196;2023-09-19T01:51:08;27.33;;;17.58;;
61569;SDS011;47462;59.172;17.196;2023-09-19T01:53:55;27.95;;;17.85;;
61569;SDS011;47462;59.172;17.196;2023-09-19T01:56:30;30.45;;;17.70;;
61569;SDS011;47462;59.172;17.196;2023-09-19T01:59:11;26.90;;;18.25;;
61569;SDS011;47462;59.172;17.196;2023-09-19T02:01:41;30.63;;;18.98;;
61569;SDS011;47462;59.172;17.196;2023-09-19T02:04:09;31.25;;;18.88;;
61569;SDS011;47462;59.172;17.196;2023-09-19T02:09:00;32.95;;;18.40;;
61569;SDS011;47462;59.172;17.196;2023-09-19T02:11:26;27.38;;;20.00;;
61569;SDS011;47462;59.172;17.196;2023-09-19T02:16:19;24.27;;;17.92;;
61569;SDS011;47462;59.172;17.196;2023-09-19T02:18:45;29.27;;;19.33;;
61569;SDS011;47462;59.172;17.196;2023-09-19T02:21:12;34.22;;;20.52;;
61569;SDS011;47462;59.172;17.196;2023-09-19T02:26:03;29.20;;;19.55;;
61569;SDS011;47462;59.172;17.196;2023-09-19T02:28:30;35.17;;;21.23;;
61569;SDS011;47462;59.172;17.196;2023-09-19T02:30:57;35.47;;;20.60;;
61569;SDS011;47462;59.172;17.196;2023-09-19T02:35:48;27.58;;;19.65;;
61569;SDS011;47462;59.172;17.196;2023-09-19T02:40:39;31.70;;;20.95;;
61569;SDS011;47462;59.172;17.196;2023-09-19T02:45:30;30.25;;;20.38;;
61569;SDS011;47462;59.172;17.196;2023-09-19T02:47:57;33.95;;;20.80;;
61569;SDS011;47462;59.172;17.196;2023-09-19T02:52:48;28.65;;;19.02;;
61569;SDS011;47462;59.172;17.196;2023-09-19T02:57:52;29.92;;;19.70;;
61569;SDS011;47462;59.172;17.196;2023-09-19T03:00:20;30.23;;;19.48;;
61569;SDS011;47462;59.172;17.196;2023-09-19T03:02:54;33.80;;;20.58;;
61569;SDS011;47462;59.172;17.196;2023-09-19T03:05:20;28.17;;;18.70;;
61569;SDS011;47462;59.172;17.196;2023-09-19T03:07:46;36.58;;;19.80;;
61569;SDS011;47462;59.172;17.196;2023-09-19T03:10:15;30.83;;;19.50;;
61569;SDS011;47462;59.172;17.196;2023-09-19T03:12:41;32.95;;;19.23;;
61569;SDS011;47462;59.172;17.196;2023-09-19T03:17:33;27.15;;;19.15;;
61569;SDS011;47462;59.172;17.196;2023-09-19T03:20:00;35.72;;;20.40;;
61569;SDS011;47462;59.172;17.196;2023-09-19T03:24:52;29.75;;;20.52;;
61569;SDS011;47462;59.172;17.196;2023-09-19T03:27:18;35.47;;;19.98;;
61569;SDS011;47462;59.172;17.196;2023-09-19T03:32:08;32.80;;;19.83;;
61569;SDS011;47462;59.172;17.196;2023-09-19T03:34:37;32.05;;;20.92;;
61569;SDS011;47462;59.172;17.196;2023-09-19T03:37:08;26.58;;;20.50;;
61569;SDS011;47462;59.172;17.196;2023-09-19T03:41:59;36.35;;;22.33;;
61569;SDS011;47462;59.172;17.196;2023-09-19T03:46:49;34.77;;;21.37;;
61569;SDS011;47462;59.172;17.196;2023-09-19T03:51:40;33.95;;;20.40;;
61569;SDS011;47462;59.172;17.196;2023-09-19T03:54:06;32.80;;;20.77;;
61569;SDS011;47462;59.172;17.196;2023-09-19T03:56:32;34.22;;;20.48;;
61569;SDS011;47462;59.172;17.196;2023-09-19T04:03:58;32.50;;;20.50;;
61569;SDS011;47462;59.172;17.196;2023-09-19T04:06:32;37.22;;;21.73;;
61569;SDS011;47462;59.172;17.196;2023-09-19T04:11:23;34.92;;;21.45;;
61569;SDS011;47462;59.172;17.196;2023-09-19T04:16:14;33.23;;;21.27;;
61569;SDS011;47462;59.172;17.196;2023-09-19T04:21:05;38.38;;;20.90;;
61569;SDS011;47462;59.172;17.196;2023-09-19T04:25:56;30.30;;;19.90;;
61569;SDS011;47462;59.172;17.196;2023-09-19T04:28:22;36.75;;;21.80;;
61569;SDS011;47462;59.172;17.196;2023-09-19T04:33:13;36.45;;;20.58;;
61569;SDS011;47462;59.172;17.196;2023-09-19T04:35:39;33.35;;;21.00;;
61569;SDS011;47462;59.172;17.196;2023-09-19T04:38:07;32.67;;;20.25;;
61569;SDS011;47462;59.172;17.196;2023-09-19T04:42:59;31.70;;;20.27;;
61569;SDS011;47462;59.172;17.196;2023-09-19T04:45:28;31.95;;;20.45;;
61569;SDS011;47462;59.172;17.196;2023-09-19T04:47:54;35.10;;;21.65;;
61569;SDS011;47462;59.172;17.196;2023-09-19T04:52:48;30.30;;;21.27;;
61569;SDS011;47462;59.172;17.196;2023-09-19T04:55:16;30.58;;;20.80;;
61569;SDS011;47462;59.172;17.196;2023-09-19T04:57:46;35.17;;;21.52;;
61569;SDS011;47462;59.172;17.196;2023-09-19T05:00:21;30.98;;;21.27;;
61569;SDS011;47462;59.172;17.196;2023-09-19T05:02:52;38.33;;;21.20;;
61569;SDS011;47462;59.172;17.196;2023-09-19T05:05:21;31.67;;;20.83;;
61569;SDS011;47462;59.172;17.196;2023-09-19T05:07:47;34.45;;;20.45;;
61569;SDS011;47462;59.172;17.196;2023-09-19T05:12:39;34.47;;;21.08;;
61569;SDS011;47462;59.172;17.196;2023-09-19T05:15:04;35.10;;;20.92;;
61569;SDS011;47462;59.172;17.196;2023-09-19T05:17:32;31.10;;;21.40;;
61569;SDS011;47462;59.172;17.196;2023-09-19T05:22:28;32.05;;;21.20;;
61569;SDS011;47462;59.172;17.196;2023-09-19T05:24:54;31.85;;;20.52;;
61569;SDS011;47462;59.172;17.196;2023-09-19T05:29:46;31.48;;;19.83;;
61569;SDS011;47462;59.172;17.196;2023-09-19T05:34:37;26.77;;;20.60;;
61569;SDS011;47462;59.172;17.196;2023-09-19T05:37:03;24.95;;;18.58;;
61569;SDS011;47462;59.172;17.196;2023-09-19T05:39:30;30.52;;;20.08;;
61569;SDS011;47462;59.172;17.196;2023-09-19T05:44:22;30.23;;;19.30;;
61569;SDS011;47462;59.172;17.196;2023-09-19T05:49:13;30.45;;;19.88;;
61569;SDS011;47462;59.172;17.196;2023-09-19T05:51:39;34.42;;;20.45;;
61569;SDS011;47462;59.172;17.196;2023-09-19T05:56:30;31.02;;;19.60;;
61569;SDS011;47462;59.172;17.196;2023-09-19T05:58:56;28.08;;;20.30;;
61569;SDS011;47462;59.172;17.196;2023-09-19T06:03:47;29.75;;;19.73;;
61569;SDS011;47462;59.172;17.196;2023-09-19T06:08:38;30.25;;;19.13;;
61569;SDS011;47462;59.172;17.196;2023-09-19T06:13:34;27.85;;;19.38;;
61569;SDS011;47462;59.172;17.196;2023-09-19T06:16:00;27.35;;;19.00;;
61569;SDS011;47462;59.172;17.196;2023-09-19T06:18:30;27.15;;;19.90;;
61569;SDS011;47462;59.172;17.196;2023-09-19T06:20:58;26.48;;;18.65;;
61569;SDS011;47462;59.172;17.196;2023-09-19T06:23:25;26.40;;;17.58;;
61569;SDS011;47462;59.172;17.196;2023-09-19T06:25:52;25.00;;;17.25;;
61569;SDS011;47462;59.172;17.196;2023-09-19T06:28:18;22.25;;;16.85;;
61569;SDS011;47462;59.172;17.196;2023-09-19T06:30:48;28.08;;;17.58;;
61569;SDS011;47462;59.172;17.196;2023-09-19T06:35:40;26.60;;;16.63;;
61569;SDS011;47462;59.172;17.196;2023-09-19T06:38:07;21.55;;;16.63;;
61569;SDS011;47462;59.172;17.196;2023-09-19T06:43:02;20.23;;;15.95;;
61569;SDS011;47462;59.172;17.196;2023-09-19T06:45:28;22.42;;;14.90;;
61569;SDS011;47462;59.172;17.196;2023-09-19T06:50:22;21.50;;;14.43;;
61569;SDS011;47462;59.172;17.196;2023-09-19T06:52:49;20.73;;;14.63;;
61569;SDS011;47462;59.172;17.196;2023-09-19T06:55:20;20.38;;;14.85;;
61569;SDS011;47462;59.172;17.196;2023-09-19T06:57:46;21.35;;;14.50;;
61569;SDS011;47462;59.172;17.196;2023-09-19T07:02:41;17.70;;;12.20;;
61569;SDS011;47462;59.172;17.196;2023-09-19T07:05:07;16.63;;;12.77;;
61569;SDS011;47462;59.172;17.196;2023-09-19T07:07:49;17.42;;;12.23;;
61569;SDS011;47462;59.172;17.196;2023-09-19T07:10:15;23.15;;;12.52;;
61569;SDS011;47462;59.172;17.196;2023-09-19T07:12:40;18.83;;;11.65;;
61569;SDS011;47462;59.172;17.196;2023-09-19T07:15:08;18.17;;;10.93;;
61569;SDS011;47462;59.172;17.196;2023-09-19T07:17:34;17.00;;;10.77;;
61569;SDS011;47462;59.172;17.196;2023-09-19T07:20:00;15.70;;;11.45;;
61569;SDS011;47462;59.172;17.196;2023-09-19T07:22:28;19.23;;;12.27;;
61569;SDS011;47462;59.172;17.196;2023-09-19T07:24:54;18.30;;;11.43;;
61569;SDS011;47462;59.172;17.196;2023-09-19T07:27:19;21.77;;;12.02;;
61569;SDS011;47462;59.172;17.196;2023-09-19T07:29:45;19.58;;;12.00;;
61569;SDS011;47462;59.172;17.196;2023-09-19T07:32:11;16.95;;;11.02;;
61569;SDS011;47462;59.172;17.196;2023-09-19T07:34:36;17.38;;;10.55;;
61569;SDS011;47462;59.172;17.196;2023-09-19T07:37:04;16.73;;;10.55;;
61569;SDS011;47462;59.172;17.196;2023-09-19T07:39:29;17.45;;;10.10;;
61569;SDS011;47462;59.172;17.196;2023-09-19T07:41:54;21.58;;;11.15;;
61569;SDS011;47462;59.172;17.196;2023-09-19T07:44:23;15.35;;;10.48;;
61569;SDS011;47462;59.172;17.196;2023-09-19T07:46:50;17.95;;;10.80;;
61569;SDS011;47462;59.172;17.196;2023-09-19T07:49:17;17.80;;;9.63;;
61569;SDS011;47462;59.172;17.196;2023-09-19T07:51:43;12.55;;;9.23;;
61569;SDS011;47462;59.172;17.196;2023-09-19T07:54:11;16.00;;;9.13;;
61569;SDS011;47462;59.172;17.196;2023-09-19T07:56:37;12.15;;;9.15;;
61569;SDS011;47462;59.172;17.196;2023-09-19T07:59:07;15.15;;;8.77;;
61569;SDS011;47462;59.172;17.196;2023-09-19T08:01:33;13.43;;;9.70;;
61569;SDS011;47462;59.172;17.196;2023-09-19T08:04:00;12.18;;;9.13;;
61569;SDS011;47462;59.172;17.196;2023-09-19T08:06:25;16.58;;;9.65;;
61569;SDS011;47462;59.172;17.196;2023-09-19T08:08:54;14.63;;;8.98;;
61569;SDS011;47462;59.172;17.196;2023-09-19T08:11:22;14.48;;;9.27;;
61569;SDS011;47462;59.172;17.196;2023-09-19T08:13:49;10.63;;;9.05;;
61569;SDS011;47462;59.172;17.196;2023-09-19T08:16:15;13.40;;;9.48;;
61569;SDS011;47462;59.172;17.196;2023-09-19T08:18:41;13.27;;;8.43;;
61569;SDS011;47462;59.172;17.196;2023-09-19T08:21:07;14.55;;;8.68;;
61569;SDS011;47462;59.172;17.196;2023-09-19T08:23:35;14.65;;;10.18;;
61569;SDS011;47462;59.172;17.196;2023-09-19T08:26:01;16.40;;;8.85;;
61569;SDS011;47462;59.172;17.196;2023-09-19T08:28:32;13.52;;;8.40;;
61569;SDS011;47462;59.172;17.196;2023-09-19T08:31:01;14.73;;;8.57;;
61569;SDS011;47462;59.172;17.196;2023-09-19T08:33:29;12.38;;;8.30;;
61569;SDS011;47462;59.172;17.196;2023-09-19T08:35:56;13.40;;;8.52;;
61569;SDS011;47462;59.172;17.196;2023-09-19T08:38:22;14.80;;;8.20;;
61569;SDS011;47462;59.172;17.196;2023-09-19T08:40:47;13.80;;;7.88;;
61569;SDS011;47462;59.172;17.196;2023-09-19T08:43:13;11.00;;;8.05;;
61569;SDS011;47462;59.172;17.196;2023-09-19T08:45:38;12.15;;;7.82;;
61569;SDS011;47462;59.172;17.196;2023-09-19T08:50:30;9.68;;;7.28;;
61569;SDS011;47462;59.172;17.196;2023-09-19T08:52:57;14.88;;;7.38;;
61569;SDS011;47462;59.172;17.196;2023-09-19T08:55:28;11.05;;;6.57;;
61569;SDS011;47462;59.172;17.196;2023-09-19T08:58:04;9.60;;;6.80;;
61569;SDS011;47462;59.172;17.196;2023-09-19T09:00:33;10.85;;;7.10;;
61569;SDS011;47462;59.172;17.196;2023-09-19T09:03:00;9.25;;;6.65;;
61569;SDS011;47462;59.172;17.196;2023-09-19T09:05:28;8.40;;;6.10;;
61569;SDS011;47462;59.172;17.196;2023-09-19T09:07:53;7.05;;;6.03;;
61569;SDS011;47462;59.172;17.196;2023-09-19T09:10:22;11.40;;;6.38;;
61569;SDS011;47462;59.172;17.196;2023-09-19T09:12:49;8.68;;;5.93;;
61569;SDS011;47462;59.172;17.196;2023-09-19T09:15:17;11.07;;;6.20;;
61569;SDS011;47462;59.172;17.196;2023-09-19T09:17:49;10.63;;;5.18;;
61569;SDS011;47462;59.172;17.196;2023-09-19T09:20:19;9.00;;;5.40;;
61569;SDS011;47462;59.172;17.196;2023-09-19T09:22:55;9.32;;;4.80;;
61569;SDS011;47462;59.172;17.196;2023-09-19T09:25:46;7.88;;;4.15;;
61569;SDS011;47462;59.172;17.196;2023-09-19T09:28:19;7.03;;;3.97;;
61569;SDS011;47462;59.172;17.196;2023-09-19T09:30:46;6.38;;;3.95;;
61569;SDS011;47462;59.172;17.196;2023-09-19T09:33:12;10.00;;;4.30;;
61569;SDS011;47462;59.172;17.196;2023-09-19T09:35:55;7.30;;;4.38;;
61569;SDS011;47462;59.172;17.196;2023-09-19T09:38:28;7.75;;;4.28;;
61569;SDS011;47462;59.172;17.196;2023-09-19T09:40:58;5.93;;;3.78;;
61569;SDS011;47462;59.172;17.196;2023-09-19T09:43:34;4.47;;;3.60;;
61569;SDS011;47462;59.172;17.196;2023-09-19T09:51:33;5.93;;;3.22;;
61569;SDS011;47462;59.172;17.196;2023-09-19T09:54:18;11.50;;;3.03;;
61569;SDS011;47462;59.172;17.196;2023-09-19T09:57:00;6.97;;;2.60;;
61569;SDS011;47462;59.172;17.196;2023-09-19T10:02:16;4.72;;;2.97;;
61569;SDS011;47462;59.172;17.196;2023-09-19T10:04:57;5.25;;;2.90;;
61569;SDS011;47462;59.172;17.196;2023-09-19T10:07:39;3.67;;;2.53;;
61569;SDS011;47462;59.172;17.196;2023-09-19T10:10:14;4.68;;;2.78;;
61569;SDS011;47462;59.172;17.196;2023-09-19T10:12:49;5.47;;;2.45;;
61569;SDS011;47462;59.172;17.196;2023-09-19T10:15:21;7.22;;;2.10;;
61569;SDS011;47462;59.172;17.196;2023-09-19T10:17:51;5.65;;;3.17;;
61569;SDS011;47462;59.172;17.196;2023-09-19T10:20:21;4.05;;;2.25;;
61569;SDS011;47462;59.172;17.196;2023-09-19T10:22:49;3.72;;;2.20;;
61569;SDS011;47462;59.172;17.196;2023-09-19T10:25:26;4.80;;;2.10;;
61569;SDS011;47462;59.172;17.196;2023-09-19T10:28:00;3.70;;;1.92;;
61569;SDS011;47462;59.172;17.196;2023-09-19T10:30:29;3.08;;;1.80;;
61569;SDS011;47462;59.172;17.196;2023-09-19T10:33:00;3.75;;;1.70;;
61569;SDS011;47462;59.172;17.196;2023-09-19T10:35:27;3.90;;;2.13;;
61569;SDS011;47462;59.172;17.196;2023-09-19T10:37:54;2.35;;;1.70;;
61569;SDS011;47462;59.172;17.196;2023-09-19T10:40:22;4.97;;;1.80;;
61569;SDS011;47462;59.172;17.196;2023-09-19T10:42:55;4.85;;;1.73;;
61569;SDS011;47462;59.172;17.196;2023-09-19T10:45:28;3.60;;;1.88;;
61569;SDS011;47462;59.172;17.196;2023-09-19T10:47:56;3.05;;;1.40;;
61569;SDS011;47462;59.172;17.196;2023-09-19T10:50:22;4.95;;;1.40;;
61569;SDS011;47462;59.172;17.196;2023-09-19T10:52:48;3.10;;;1.10;;
61569;SDS011;47462;59.172;17.196;2023-09-19T10:55:23;2.90;;;1.13;;
61569;SDS011;47462;59.172;17.196;2023-09-19T10:57:52;2.17;;;1.02;;
61569;SDS011;47462;59.172;17.196;2023-09-19T11:00:19;3.55;;;1.17;;
61569;SDS011;47462;59.172;17.196;2023-09-19T11:05:44;3.50;;;0.98;;
61569;SDS011;47462;59.172;17.196;2023-09-19T11:11:40;5.07;;;1.00;;
61569;SDS011;47462;59.172;17.196;2023-09-19T11:30:31;5.00;;;0.90;;
61569;SDS011;47462;59.172;17.196;2023-09-19T11:33:16;14.65;;;1.20;;
61569;SDS011;47462;59.172;17.196;2023-09-19T11:43:45;2.90;;;1.05;;
61569;SDS011;47462;59.172;17.196;2023-09-19T11:46:11;2.20;;;0.98;;
61569;SDS011;47462;59.172;17.196;2023-09-19T11:48:41;4.45;;;1.00;;
61569;SDS011;47462;59.172;17.196;2023-09-19T11:51:10;5.03;;;1.55;;
61569;SDS011;47462;59.172;17.196;2023-09-19T11:53:43;3.05;;;1.23;;
61569;SDS011;47462;59.172;17.196;2023-09-19T11:56:17;5.28;;;1.15;;
61569;SDS011;47462;59.172;17.196;2023-09-19T11:58:44;2.15;;;1.13;;
61569;SDS011;47462;59.172;17.196;2023-09-19T12:01:13;6.18;;;1.27;;
61569;SDS011;47462;59.172;17.196;2023-09-19T12:03:45;2.63;;;0.95;;
61569;SDS011;47462;59.172;17.196;2023-09-19T12:06:13;3.78;;;1.23;;
61569;SDS011;47462;59.172;17.196;2023-09-19T12:08:40;7.72;;;1.40;;
61569;SDS011;47462;59.172;17.196;2023-09-19T12:11:11;3.30;;;1.33;;
61569;SDS011;47462;59.172;17.196;2023-09-19T12:13:41;3.75;;;0.95;;
61569;SDS011;47462;59.172;17.196;2023-09-19T12:16:15;5.88;;;1.27;;
61569;SDS011;47462;59.172;17.196;2023-09-19T12:18:45;5.45;;;0.82;;
61569;SDS011;47462;59.172;17.196;2023-09-19T12:21:22;3.92;;;1.33;;
61569;SDS011;47462;59.172;17.196;2023-09-19T12:26:43;4.75;;;1.25;;
61569;SDS011;47462;59.172;17.196;2023-09-19T12:29:14;4.97;;;1.30;;
61569;SDS011;47462;59.172;17.196;2023-09-19T12:31:54;3.95;;;1.50;;
61569;SDS011;47462;59.172;17.196;2023-09-19T12:34:31;4.57;;;1.05;;
61569;SDS011;47462;59.172;17.196;2023-09-19T12:37:13;2.72;;;1.40;;
61569;SDS011;47462;59.172;17.196;2023-09-19T12:40:02;4.20;;;1.25;;
61569;SDS011;47462;59.172;17.196;2023-09-19T12:42:39;6.55;;;1.52;;
61569;SDS011;47462;59.172;17.196;2023-09-19T12:45:06;6.32;;;1.58;;
61569;SDS011;47462;59.172;17.196;2023-09-19T12:47:34;3.60;;;1.27;;
61569;SDS011;47462;59.172;17.196;2023-09-19T12:52:42;3.83;;;1.45;;
61569;SDS011;47462;59.172;17.196;2023-09-19T12:55:28;6.68;;;1.70;;
61569;SDS011;47462;59.172;17.196;2023-09-19T13:00:35;4.07;;;1.65;;
61569;SDS011;47462;59.172;17.196;2023-09-19T13:03:09;4.68;;;1.40;;
61569;SDS011;47462;59.172;17.196;2023-09-19T13:08:24;9.05;;;1.20;;
61569;SDS011;47462;59.172;17.196;2023-09-19T13:13:35;8.40;;;1.13;;
61569;SDS011;47462;59.172;17.196;2023-09-19T13:16:05;2.20;;;1.08;;
61569;SDS011;47462;59.172;17.196;2023-09-19T13:18:43;4.45;;;1.15;;
61569;SDS011;47462;59.172;17.196;2023-09-19T13:21:15;3.33;;;1.02;;
61569;SDS011;47462;59.172;17.196;2023-09-19T13:23:52;4.35;;;0.77;;
61569;SDS011;47462;59.172;17.196;2023-09-19T13:26:23;3.35;;;0.88;;
61569;SDS011;47462;59.172;17.196;2023-09-19T13:31:14;4.93;;;1.13;;
61569;SDS011;47462;59.172;17.196;2023-09-19T13:36:10;3.38;;;1.33;;
61569;SDS011;47462;59.172;17.196;2023-09-19T13:38:37;3.38;;;1.15;;
61569;SDS011;47462;59.172;17.196;2023-09-19T13:43:27;6.60;;;1.20;;
61569;SDS011;47462;59.172;17.196;2023-09-19T13:45:54;2.83;;;1.10;;
61569;SDS011;47462;59.172;17.196;2023-09-19T13:50:47;4.35;;;1.35;;
61569;SDS011;47462;59.172;17.196;2023-09-19T13:53:13;5.47;;;1.10;;
61569;SDS011;47462;59.172;17.196;2023-09-19T13:58:05;3.60;;;0.98;;
61569;SDS011;47462;59.172;17.196;2023-09-19T14:00:31;3.90;;;1.30;;
61569;SDS011;47462;59.172;17.196;2023-09-19T14:03:00;10.07;;;1.83;;
61569;SDS011;47462;59.172;17.196;2023-09-19T14:07:54;3.55;;;1.50;;
61569;SDS011;47462;59.172;17.196;2023-09-19T14:10:21;4.38;;;1.67;;
61569;SDS011;47462;59.172;17.196;2023-09-19T14:15:12;5.65;;;1.20;;
61569;SDS011;47462;59.172;17.196;2023-09-19T14:20:04;3.33;;;1.50;;
61569;SDS011;47462;59.172;17.196;2023-09-19T14:22:31;5.47;;;1.05;;
61569;SDS011;47462;59.172;17.196;2023-09-19T14:27:24;4.40;;;1.33;;
61569;SDS011;47462;59.172;17.196;2023-09-19T14:29:50;3.10;;;1.20;;
61569;SDS011;47462;59.172;17.196;2023-09-19T14:34:40;5.47;;;0.90;;
61569;SDS011;47462;59.172;17.196;2023-09-19T14:37:08;3.70;;;1.00;;
61569;SDS011;47462;59.172;17.196;2023-09-19T14:41:59;4.35;;;0.70;;
61569;SDS011;47462;59.172;17.196;2023-09-19T14:46:50;2.67;;;0.68;;
61569;SDS011;47462;59.172;17.196;2023-09-19T14:51:41;4.97;;;0.60;;
61569;SDS011;47462;59.172;17.196;2023-09-19T14:54:09;3.95;;;1.02;;
61569;SDS011;47462;59.172;17.196;2023-09-19T14:59:00;6.15;;;1.05;;
61569;SDS011;47462;59.172;17.196;2023-09-19T15:03:50;2.10;;;0.63;;
61569;SDS011;47462;59.172;17.196;2023-09-19T15:06:16;0.98;;;0.40;;
61569;SDS011;47462;59.172;17.196;2023-09-19T15:08:45;1.70;;;0.50;;
61569;SDS011;47462;59.172;17.196;2023-09-19T15:11:12;5.70;;;0.85;;
61569;SDS011;47462;59.172;17.196;2023-09-19T15:13:38;1.98;;;0.50;;
61569;SDS011;47462;59.172;17.196;2023-09-19T15:18:30;5.07;;;1.35;;
61569;SDS011;47462;59.172;17.196;2023-09-19T15:23:28;2.60;;;0.88;;
61569;SDS011;47462;59.172;17.196;2023-09-19T15:25:59;1.83;;;0.85;;
61569;SDS011;47462;59.172;17.196;2023-09-19T15:28:32;2.35;;;0.57;;
61569;SDS011;47462;59.172;17.196;2023-09-19T15:30:59;3.75;;;1.30;;
61569;SDS011;47462;59.172;17.196;2023-09-19T15:33:31;2.33;;;0.95;;
61569;SDS011;47462;59.172;17.196;2023-09-19T15:36:03;4.53;;;0.80;;
61569;SDS011;47462;59.172;17.196;2023-09-19T15:38:30;3.83;;;0.95;;
61569;SDS011;47462;59.172;17.196;2023-09-19T15:40:57;2.30;;;0.82;;
61569;SDS011;47462;59.172;17.196;2023-09-19T15:43:25;3.95;;;0.57;;
61569;SDS011;47462;59.172;17.196;2023-09-19T15:45:50;2.63;;;0.70;;
61569;SDS011;47462;59.172;17.196;2023-09-19T15:48:16;4.13;;;0.80;;
61569;SDS011;47462;59.172;17.196;2023-09-19T15:50:43;1.33;;;0.50;;
61569;SDS011;47462;59.172;17.196;2023-09-19T15:53:09;2.95;;;0.70;;
61569;SDS011;47462;59.172;17.196;2023-09-19T15:55:40;1.35;;;0.55;;
61569;SDS011;47462;59.172;17.196;2023-09-19T15:58:06;3.47;;;0.40;;
61569;SDS011;47462;59.172;17.196;2023-09-19T16:00:32;2.45;;;0.60;;
61569;SDS011;47462;59.172;17.196;2023-09-19T16:03:01;1.80;;;0.70;;
61569;SDS011;47462;59.172;17.196;2023-09-19T16:05:27;1.33;;;0.68;;
61569;SDS011;47462;59.172;17.196;2023-09-19T16:07:53;4.90;;;0.63;;
61569;SDS011;47462;59.172;17.196;2023-09-19T16:10:20;2.25;;;0.60;;
61569;SDS011;47462;59.172;17.196;2023-09-19T16:12:48;3.05;;;0.90;;
61569;SDS011;47462;59.172;17.196;2023-09-19T16:15:13;2.78;;;1.05;;
61569;SDS011;47462;59.172;17.196;2023-09-19T16:17:40;0.85;;;0.63;;
61569;SDS011;47462;59.172;17.196;2023-09-19T16:20:06;2.25;;;1.02;;
61569;SDS011;47462;59.172;17.196;2023-09-19T16:22:36;3.40;;;0.65;;
61569;SDS011;47462;59.172;17.196;2023-09-19T16:25:01;2.58;;;0.93;;
61569;SDS011;47462;59.172;17.196;2023-09-19T16:29:53;2.97;;;0.77;;
61569;SDS011;47462;59.172;17.196;2023-09-19T16:32:19;5.35;;;0.95;;
61569;SDS011;47462;59.172;17.196;2023-09-19T16:34:45;2.35;;;1.17;;
61569;SDS011;47462;59.172;17.196;2023-09-19T16:37:10;2.88;;;0.90;;
61569;SDS011;47462;59.172;17.196;2023-09-19T16:39:35;2.50;;;1.00;;
61569;SDS011;47462;59.172;17.196;2023-09-19T16:42:01;2.05;;;0.75;;
61569;SDS011;47462;59.172;17.196;2023-09-19T16:44:27;3.85;;;0.93;;
61569;SDS011;47462;59.172;17.196;2023-09-19T16:46:53;2.92;;;1.00;;
61569;SDS011;47462;59.172;17.196;2023-09-19T16:49:19;1.77;;;0.90;;
61569;SDS011;47462;59.172;17.196;2023-09-19T16:51:44;3.90;;;1.33;;
61569;SDS011;47462;59.172;17.196;2023-09-19T16:56:35;4.28;;;0.75;;
61569;SDS011;47462;59.172;17.196;2023-09-19T16:59:02;2.78;;;0.88;;
61569;SDS011;47462;59.172;17.196;2023-09-19T17:01:30;1.05;;;0.50;;
61569;SDS011;47462;59.172;17.196;2023-09-19T17:03:58;2.78;;;0.93;;
61569;SDS011;47462;59.172;17.196;2023-09-19T17:06:24;1.58;;;0.57;;
61569;SDS011;47462;59.172;17.196;2023-09-19T17:08:50;6.35;;;1.00;;
61569;SDS011;47462;59.172;17.196;2023-09-19T17:11:16;3.65;;;0.88;;
61569;SDS011;47462;59.172;17.196;2023-09-19T17:13:43;4.07;;;0.77;;
61569;SDS011;47462;59.172;17.196;2023-09-19T17:16:12;2.55;;;0.90;;
61569;SDS011;47462;59.172;17.196;2023-09-19T17:18:41;4.68;;;0.80;;
61569;SDS011;47462;59.172;17.196;2023-09-19T17:21:07;1.65;;;0.57;;
61569;SDS011;47462;59.172;17.196;2023-09-19T17:23:35;2.35;;;0.80;;
61569;SDS011;47462;59.172;17.196;2023-09-19T17:28:39;3.10;;;0.68;;
61569;SDS011;47462;59.172;17.196;2023-09-19T17:31:09;0.93;;;0.73;;
61569;SDS011;47462;59.172;17.196;2023-09-19T17:33:42;3.67;;;0.77;;
61569;SDS011;47462;59.172;17.196;2023-09-19T17:36:09;2.35;;;0.75;;
61569;SDS011;47462;59.172;17.196;2023-09-19T17:38:39;8.20;;;0.98;;
61569;SDS011;47462;59.172;17.196;2023-09-19T17:41:06;3.55;;;0.90;;
61569;SDS011;47462;59.172;17.196;2023-09-19T17:43:34;3.88;;;0.77;;
61569;SDS011;47462;59.172;17.196;2023-09-19T17:46:12;6.32;;;0.77;;
61569;SDS011;47462;59.172;17.196;2023-09-19T17:48:45;1.67;;;0.70;;
61569;SDS011;47462;59.172;17.196;2023-09-19T17:51:15;4.72;;;0.93;;
61569;SDS011;47462;59.172;17.196;2023-09-19T17:53:44;6.38;;;0.63;;
61569;SDS011;47462;59.172;17.196;2023-09-19T17:56:11;2.33;;;0.70;;
61569;SDS011;47462;59.172;17.196;2023-09-19T17:58:40;3.30;;;0.80;;
61569;SDS011;47462;59.172;17.196;2023-09-19T18:03:40;8.32;;;1.40;;
61569;SDS011;47462;59.172;17.196;2023-09-19T18:06:07;2.75;;;1.40;;
61569;SDS011;47462;59.172;17.196;2023-09-19T18:08:33;4.60;;;1.00;;
61569;SDS011;47462;59.172;17.196;2023-09-19T18:11:02;3.45;;;0.80;;
61569;SDS011;47462;59.172;17.196;2023-09-19T18:13:28;5.57;;;1.35;;